메인 페이지
METAR-TAF:

METAR-TAF

공항 :

매디슨, 위스콘신, 미국

위도: 43-08-26N, 경도: 089-20-43W, 고도: 262m

현재 날씨관측

예보는 15분 전, 11:53시(UTC)에 발표되었습니다.
남서8kt, 순간 최대 풍속 17kt
온도 -1°C
습도 69%
기압 1016 hPa
시정: 16.1km
맑음

METAR: KMSN 281153Z 23008G17KT 10SM CLR M01/M06 A2999 RMK AO2 SLP167 T10111056 11006 21011 58005

시각: 07:08 (12:08 UTC)

예보

예보는 48분 전, 11:20시(UTC)에 발표되었습니다.
예보 대상 시간: 28일 12시부터 29일 12시까지 (UTC)
남서9kt
시정: 10km
맑음
28일 1300시부터 (UTC)
남서8kt
시정: 10km
맑음
28일 2300시부터 (UTC)
5kt
시정: 10km
고도 25000ft 상공 구름 조금
29일 1100시부터 (UTC)
8kt
시정: 10km
고도 2100ft 상공 구름 많음

TAF: KMSN 281120Z 2812/2912 23009KT P6SM SKC WS020/27040KT FM281300 23008KT P6SM SKC FM282300 26005KT P6SM FEW250 FM291100 01008KT P6SM BKN021

4,000개 이상의 공항 관측 자료 및 예보 (METAR 및 TAF 보고).

지도상에서 검색 가능한 기상관측소가 노란 점과 빨간 점으로 표시되어 있습니다.

기상관측소 명을 보려면 표시 위로 마우스를 이동하세요.

날씨 관측과 예보를 보려면 클릭하세요.

지도 변경 : 확대하려면 엑스 표시가 있는 녹색 버튼, 축소하려면 빼기 표시가 있는 녹색 버튼, 다음 페이지의 지도를 보려면 녹색 화살표를 클릭하세요.


METAR-TAF: